»·PEaware :: N9755F L52-L88

N9755F :: L52-L88

FLIGHT INFORMATION

Flight Status: Arrived
Operator: Privately registered:
United States
More flights under this callsign
Pilot: John F. (2520)
Aircraft: PIPER PA-28 CHEROKEE ARCHER
(P28A)
More flights by this aircraft type
Origin: L52 Oceano Co
United States
Destination: L88 New Cuyama
United States
More flights between these airports :: More routes between these airports
Route:
File this flight plan on PilotEdge
Remarks:
Altitude:
(Current/Filed)
5,600ft
Speed:
(Current/Filed)
104kts
Departed: 12-Mar-17 04:32 PM
Arrived: 12-Mar-17 05:06 PM
Distance/Time
Traveled:
120nm/0:34
Distance/Time
To Go:
Arrived

Flight Plot

Page will automatically refresh every two minutes.


Map Options




Map Legend


Flown Route
Filed Route
Departure Airport
Arrival Airport
Navaid (VOR, NDB)
Fix

Horizontal Profiles

Position Reports

Time Latitude Longitude Heading Altitude Ground
Speed
12-Mar-17 16:05 35.102439 -120.622844 124 17ft 0kts
12-Mar-17 16:06 35.102439 -120.622844 124 17ft 0kts
12-Mar-17 16:07 35.102439 -120.622844 124 17ft 0kts
12-Mar-17 16:08 35.102439 -120.622844 124 17ft 0kts
12-Mar-17 16:09 35.102439 -120.622844 124 17ft 0kts
12-Mar-17 16:10 35.102439 -120.622844 124 17ft 0kts
12-Mar-17 16:11 35.102439 -120.622844 124 17ft 0kts
12-Mar-17 16:12 35.102439 -120.622844 124 17ft 0kts
12-Mar-17 16:17 35.102493 -120.622944 124 17ft 0kts
12-Mar-17 16:18 35.102493 -120.622944 124 17ft 0kts
12-Mar-17 16:19 35.102493 -120.622944 124 17ft 0kts
12-Mar-17 16:20 35.102493 -120.622944 124 17ft 0kts
12-Mar-17 16:21 35.102493 -120.622944 124 17ft 0kts
12-Mar-17 16:22 35.102493 -120.622944 124 17ft 0kts
12-Mar-17 16:23 35.102493 -120.622944 124 17ft 0kts
12-Mar-17 16:24 35.102493 -120.622944 124 17ft 0kts
12-Mar-17 16:25 35.102493 -120.622944 124 17ft 0kts
12-Mar-17 16:26 35.102493 -120.622944 124 17ft 0kts
12-Mar-17 16:27 35.102463 -120.622889 123 17ft 1kts
12-Mar-17 16:28 35.101986 -120.622315 140 17ft 0kts
12-Mar-17 16:29 35.101953 -120.622286 150 17ft 0kts
12-Mar-17 16:30 35.101953 -120.622286 150 17ft 0kts
12-Mar-17 16:31 35.100996 -120.621463 123 17ft 16kts
12-Mar-17 16:32 35.099887 -120.619466 306 17ft 0kts
12-Mar-17 16:33 35.104456 -120.627431 304 113ft 87kts
12-Mar-17 16:34 35.116281 -120.648812 327 1139ft 75kts
12-Mar-17 16:35 35.128575 -120.641728 110 2062ft 68kts
12-Mar-17 16:36 35.117852 -120.620936 124 2802ft 81kts
12-Mar-17 16:37 35.103694 -120.600284 137 3591ft 82kts
12-Mar-17 16:38 35.087299 -120.581217 141 4339ft 82kts
12-Mar-17 16:39 35.069269 -120.563759 146 5042ft 83kts
12-Mar-17 16:40 35.059579 -120.539407 109 5657ft 87kts
12-Mar-17 16:41 35.046035 -120.507754 114 5471ft 108kts
12-Mar-17 16:42 35.033831 -120.475406 113 5352ft 104kts
12-Mar-17 16:43 35.022838 -120.442595 113 5275ft 105kts
12-Mar-17 16:44 35.011060 -120.409956 107 5287ft 104kts
12-Mar-17 16:45 35.006116 -120.375004 97 5377ft 105kts
12-Mar-17 16:46 35.002477 -120.340153 100 5517ft 105kts
12-Mar-17 16:47 34.997162 -120.305288 95 5662ft 105kts
12-Mar-17 16:48 34.994161 -120.269936 97 5804ft 105kts
12-Mar-17 16:49 34.991167 -120.234200 95 5766ft 105kts
12-Mar-17 16:50 34.987476 -120.198867 96 5724ft 105kts
12-Mar-17 16:51 34.984710 -120.163248 95 5640ft 105kts
12-Mar-17 16:52 34.981387 -120.128069 95 5538ft 105kts
12-Mar-17 16:53 34.979239 -120.092584 89 5442ft 105kts
12-Mar-17 16:54 34.975680 -120.057436 95 5353ft 105kts
12-Mar-17 16:55 34.972381 -120.022162 95 5268ft 105kts
12-Mar-17 16:56 34.971772 -119.986778 88 5186ft 104kts
12-Mar-17 16:57 34.967698 -119.951662 95 5099ft 104kts
12-Mar-17 16:58 34.965806 -119.922403 91 4942ft 105kts
12-Mar-17 16:59 34.962802 -119.882200 96 4646ft 106kts
12-Mar-17 17:00 34.961974 -119.872966 97 4581ft 105kts
12-Mar-17 17:01 34.957766 -119.835435 100 3807ft 116kts
12-Mar-17 17:02 34.952179 -119.798983 99 3272ft 106kts
12-Mar-17 17:03 34.948719 -119.763304 96 3145ft 104kts
12-Mar-17 17:04 34.943005 -119.734430 98 3171ft 105kts
12-Mar-17 17:05 34.937753 -119.691243 129 2789ft 112kts
12-Mar-17 17:06 34.937243 -119.678408 298 2515ft 89kts
12-Mar-17 17:07 34.942718 -119.690242 116 2193ft 0kts
12-Mar-17 17:08 34.942716 -119.690235 115 2193ft 0kts
12-Mar-17 17:09 34.942716 -119.690235 115 2193ft 0kts
12-Mar-17 17:10 34.942716 -119.690235 115 2193ft 0kts
12-Mar-17 17:11 34.942716 -119.690235 115 2193ft 0kts
12-Mar-17 17:12 34.942716 -119.690235 115 2193ft 0kts
12-Mar-17 17:21 34.739062 -118.217251 254 2354ft 0kts

Navigation Log

Ident Type
Flight plan parsing failed, navigation log unavailable